sensor_id;sensor_type;location;lat;lon;timestamp;pressure;altitude;pressure_sealevel;temperature;humidity
50854;BME280;44154;45.506;-122.806;2022-07-29T00:00:57;100221.00;;;28.86;46.00
50854;BME280;44154;45.506;-122.806;2022-07-29T00:03:23;100219.59;;;28.88;46.13
50854;BME280;44154;45.506;-122.806;2022-07-29T00:05:49;100211.84;;;28.90;45.78
50854;BME280;44154;45.506;-122.806;2022-07-29T00:08:15;100212.88;;;28.95;46.14
50854;BME280;44154;45.506;-122.806;2022-07-29T00:10:42;100189.38;;;28.83;46.01
50854;BME280;44154;45.506;-122.806;2022-07-29T00:13:08;100197.75;;;28.92;46.13
50854;BME280;44154;45.506;-122.806;2022-07-29T00:15:34;100208.19;;;28.95;45.95
50854;BME280;44154;45.506;-122.806;2022-07-29T00:18:00;100210.25;;;29.03;45.85
50854;BME280;44154;45.506;-122.806;2022-07-29T00:20:26;100205.56;;;29.04;45.78
50854;BME280;44154;45.506;-122.806;2022-07-29T00:22:53;100186.75;;;28.92;45.71
50854;BME280;44154;45.506;-122.806;2022-07-29T00:25:19;100201.09;;;29.08;45.68
50854;BME280;44154;45.506;-122.806;2022-07-29T00:27:45;100178.72;;;28.96;45.66
50854;BME280;44154;45.506;-122.806;2022-07-29T00:30:12;100202.13;;;29.12;46.07
50854;BME280;44154;45.506;-122.806;2022-07-29T00:32:38;100193.06;;;29.12;45.63
50854;BME280;44154;45.506;-122.806;2022-07-29T00:35:05;100200.41;;;29.16;46.18
50854;BME280;44154;45.506;-122.806;2022-07-29T00:37:50;100192.66;;;29.18;45.74
50854;BME280;44154;45.506;-122.806;2022-07-29T00:40:17;100162.38;;;28.99;45.88
50854;BME280;44154;45.506;-122.806;2022-07-29T00:45:10;100189.56;;;29.25;46.05
50854;BME280;44154;45.506;-122.806;2022-07-29T00:47:36;100192.81;;;29.27;45.79
50854;BME280;44154;45.506;-122.806;2022-07-29T00:50:04;100180.31;;;29.16;45.79
50854;BME280;44154;45.506;-122.806;2022-07-29T00:52:31;100181.13;;;29.16;45.71
50854;BME280;44154;45.506;-122.806;2022-07-29T00:54:58;100201.00;;;29.32;45.86
50854;BME280;44154;45.506;-122.806;2022-07-29T00:57:24;100193.25;;;29.34;45.66
50854;BME280;44154;45.506;-122.806;2022-07-29T00:59:50;100195.72;;;29.36;45.53
50854;BME280;44154;45.506;-122.806;2022-07-29T01:02:16;100195.72;;;29.36;45.34
50854;BME280;44154;45.506;-122.806;2022-07-29T01:04:42;100186.31;;;29.37;45.62
50854;BME280;44154;45.506;-122.806;2022-07-29T01:07:10;100192.84;;;29.41;45.53
50854;BME280;44154;45.506;-122.806;2022-07-29T01:09:37;100188.69;;;29.44;45.80
50854;BME280;44154;45.506;-122.806;2022-07-29T01:12:04;100194.69;;;29.46;45.31
50854;BME280;44154;45.506;-122.806;2022-07-29T01:14:31;100184.28;;;29.42;45.42
50854;BME280;44154;45.506;-122.806;2022-07-29T01:17:02;100188.56;;;29.49;45.89
50854;BME280;44154;45.506;-122.806;2022-07-29T01:19:53;100191.06;;;29.50;45.83
50854;BME280;44154;45.506;-122.806;2022-07-29T01:25:32;100187.38;;;29.55;45.52
50854;BME280;44154;45.506;-122.806;2022-07-29T01:31:07;100175.13;;;29.61;45.18
50854;BME280;44154;45.506;-122.806;2022-07-29T01:33:39;100146.00;;;29.41;45.78
50854;BME280;44154;45.506;-122.806;2022-07-29T01:36:27;100157.75;;;29.47;45.63
50854;BME280;44154;45.506;-122.806;2022-07-29T01:39:07;100181.66;;;29.65;45.29
50854;BME280;44154;45.506;-122.806;2022-07-29T01:41:37;100172.06;;;29.63;44.93
50854;BME280;44154;45.506;-122.806;2022-07-29T01:44:14;100172.28;;;29.66;45.42
50854;BME280;44154;45.506;-122.806;2022-07-29T01:46:49;100178.00;;;29.70;45.31
50854;BME280;44154;45.506;-122.806;2022-07-29T01:49:28;100143.56;;;29.53;45.12
50854;BME280;44154;45.506;-122.806;2022-07-29T01:52:07;100174.63;;;29.73;45.30
50854;BME280;44154;45.506;-122.806;2022-07-29T01:54:42;100168.78;;;29.74;44.90
50854;BME280;44154;45.506;-122.806;2022-07-29T01:57:12;100175.97;;;29.75;44.87
50854;BME280;44154;45.506;-122.806;2022-07-29T01:59:40;100162.25;;;29.70;44.76
50854;BME280;44154;45.506;-122.806;2022-07-29T02:02:09;100171.78;;;29.78;44.67
50854;BME280;44154;45.506;-122.806;2022-07-29T02:04:37;100171.47;;;29.80;44.67
50854;BME280;44154;45.506;-122.806;2022-07-29T02:07:06;100139.59;;;29.59;44.74
50854;BME280;44154;45.506;-122.806;2022-07-29T02:09:35;100168.41;;;29.81;44.44
50854;BME280;44154;45.506;-122.806;2022-07-29T02:12:03;100172.81;;;29.82;44.43
50854;BME280;44154;45.506;-122.806;2022-07-29T02:14:35;100143.56;;;29.67;44.46
50854;BME280;44154;45.506;-122.806;2022-07-29T02:17:02;100172.53;;;29.84;44.23
50854;BME280;44154;45.506;-122.806;2022-07-29T02:19:32;100174.97;;;29.85;44.44
50854;BME280;44154;45.506;-122.806;2022-07-29T02:21:59;100167.19;;;29.87;44.32
50854;BME280;44154;45.506;-122.806;2022-07-29T02:24:26;100150.03;;;29.76;44.07
50854;BME280;44154;45.506;-122.806;2022-07-29T02:26:56;100174.06;;;29.90;44.28
50854;BME280;44154;45.506;-122.806;2022-07-29T02:29:26;100172.94;;;29.91;44.15
50854;BME280;44154;45.506;-122.806;2022-07-29T02:31:56;100160.75;;;29.92;43.93
50854;BME280;44154;45.506;-122.806;2022-07-29T02:34:23;100159.63;;;29.93;43.73
50854;BME280;44154;45.506;-122.806;2022-07-29T02:36:51;100161.28;;;29.94;43.98
50854;BME280;44154;45.506;-122.806;2022-07-29T02:39:18;100146.28;;;29.86;43.90
50854;BME280;44154;45.506;-122.806;2022-07-29T02:41:48;100173.97;;;29.95;43.65
50854;BME280;44154;45.506;-122.806;2022-07-29T02:44:16;100172.00;;;29.96;43.72
50854;BME280;44154;45.506;-122.806;2022-07-29T02:49:57;100163.91;;;29.99;43.59
50854;BME280;44154;45.506;-122.806;2022-07-29T02:55:16;100174.38;;;30.02;43.47
50854;BME280;44154;45.506;-122.806;2022-07-29T02:57:51;100144.94;;;29.84;43.53
50854;BME280;44154;45.506;-122.806;2022-07-29T03:00:21;100172.09;;;30.04;43.43
50854;BME280;44154;45.506;-122.806;2022-07-29T03:02:52;100172.91;;;30.05;43.39
50854;BME280;44154;45.506;-122.806;2022-07-29T03:05:20;100166.59;;;30.04;43.05
50854;BME280;44154;45.506;-122.806;2022-07-29T03:07:51;100160.47;;;29.93;43.11
50854;BME280;44154;45.506;-122.806;2022-07-29T03:10:19;100172.59;;;30.06;43.23
50854;BME280;44154;45.506;-122.806;2022-07-29T03:12:47;100181.19;;;30.05;43.09
50854;BME280;44154;45.506;-122.806;2022-07-29T03:15:14;100178.13;;;30.06;43.19
50854;BME280;44154;45.506;-122.806;2022-07-29T03:17:40;100166.09;;;30.02;42.97
50854;BME280;44154;45.506;-122.806;2022-07-29T03:20:09;100171.91;;;30.01;42.91
50854;BME280;44154;45.506;-122.806;2022-07-29T03:22:40;100175.88;;;30.08;42.79
50854;BME280;44154;45.506;-122.806;2022-07-29T03:25:18;100185.81;;;30.09;42.69
50854;BME280;44154;45.506;-122.806;2022-07-29T03:27:45;100178.34;;;30.10;42.81
50854;BME280;44154;45.506;-122.806;2022-07-29T03:30:13;100181.09;;;30.10;43.03
50854;BME280;44154;45.506;-122.806;2022-07-29T03:32:40;100180.28;;;30.09;42.88
50854;BME280;44154;45.506;-122.806;2022-07-29T03:35:07;100178.03;;;30.12;42.42
50854;BME280;44154;45.506;-122.806;2022-07-29T03:37:34;100169.75;;;30.12;42.53
50854;BME280;44154;45.506;-122.806;2022-07-29T03:40:05;100176.38;;;30.10;42.34
50854;BME280;44154;45.506;-122.806;2022-07-29T03:42:34;100189.88;;;30.12;42.28
50854;BME280;44154;45.506;-122.806;2022-07-29T03:45:07;100159.25;;;30.00;42.29
50854;BME280;44154;45.506;-122.806;2022-07-29T03:47:35;100165.56;;;30.00;42.35
50854;BME280;44154;45.506;-122.806;2022-07-29T03:50:08;100162.59;;;30.10;42.28
50854;BME280;44154;45.506;-122.806;2022-07-29T03:52:37;100173.53;;;30.02;42.14
50854;BME280;44154;45.506;-122.806;2022-07-29T03:55:04;100192.31;;;30.14;42.07
50854;BME280;44154;45.506;-122.806;2022-07-29T03:57:32;100189.56;;;30.14;42.07
50854;BME280;44154;45.506;-122.806;2022-07-29T04:00:00;100187.63;;;30.14;41.94
50854;BME280;44154;45.506;-122.806;2022-07-29T04:02:27;100175.25;;;29.98;41.89
50854;BME280;44154;45.506;-122.806;2022-07-29T04:04:53;100198.16;;;30.12;42.06
50854;BME280;44154;45.506;-122.806;2022-07-29T04:07:19;100177.00;;;30.07;42.00
50854;BME280;44154;45.506;-122.806;2022-07-29T04:09:46;100164.63;;;30.05;42.01
50854;BME280;44154;45.506;-122.806;2022-07-29T04:12:12;100184.03;;;30.14;41.70
50854;BME280;44154;45.506;-122.806;2022-07-29T04:14:38;100184.97;;;30.09;41.76
50854;BME280;44154;45.506;-122.806;2022-07-29T04:17:04;100176.59;;;30.00;41.77
50854;BME280;44154;45.506;-122.806;2022-07-29T04:19:31;100189.56;;;30.14;41.75
50854;BME280;44154;45.506;-122.806;2022-07-29T04:21:59;100187.13;;;30.12;41.78
50854;BME280;44154;45.506;-122.806;2022-07-29T04:24:25;100171.69;;;29.97;41.60
50854;BME280;44154;45.506;-122.806;2022-07-29T04:26:52;100196.72;;;30.15;41.34
50854;BME280;44154;45.506;-122.806;2022-07-29T04:29:18;100193.16;;;30.14;41.66
50854;BME280;44154;45.506;-122.806;2022-07-29T04:31:45;100199.47;;;30.15;41.67
50854;BME280;44154;45.506;-122.806;2022-07-29T04:34:12;100199.47;;;30.15;41.56
50854;BME280;44154;45.506;-122.806;2022-07-29T04:36:38;100200.09;;;30.12;41.42
50854;BME280;44154;45.506;-122.806;2022-07-29T04:39:04;100212.47;;;30.14;41.39
50854;BME280;44154;45.506;-122.806;2022-07-29T04:41:31;100225.44;;;30.14;41.30
50854;BME280;44154;45.506;-122.806;2022-07-29T04:43:57;100221.06;;;30.13;41.21
50854;BME280;44154;45.506;-122.806;2022-07-29T04:46:26;100213.72;;;30.08;41.01
50854;BME280;44154;45.506;-122.806;2022-07-29T04:48:52;100207.66;;;30.06;41.23
50854;BME280;44154;45.506;-122.806;2022-07-29T04:51:18;100219.22;;;30.08;41.07
50854;BME280;44154;45.506;-122.806;2022-07-29T04:53:44;100227.69;;;30.12;41.26
50854;BME280;44154;45.506;-122.806;2022-07-29T04:56:11;100218.91;;;30.09;41.02
50854;BME280;44154;45.506;-122.806;2022-07-29T04:58:37;100196.63;;;29.92;41.26
50854;BME280;44154;45.506;-122.806;2022-07-29T05:01:03;100229.97;;;30.09;41.32
50854;BME280;44154;45.506;-122.806;2022-07-29T05:03:30;100229.97;;;30.09;41.19
50854;BME280;44154;45.506;-122.806;2022-07-29T05:05:56;100230.47;;;30.12;41.20
50854;BME280;44154;45.506;-122.806;2022-07-29T05:08:22;100233.03;;;30.08;40.70
50854;BME280;44154;45.506;-122.806;2022-07-29T05:10:48;100239.84;;;30.10;40.73
50854;BME280;44154;45.506;-122.806;2022-07-29T05:13:14;100239.34;;;30.08;41.00
50854;BME280;44154;45.506;-122.806;2022-07-29T05:15:41;100240.47;;;30.07;40.67
50854;BME280;44154;45.506;-122.806;2022-07-29T05:18:08;100234.44;;;30.05;40.64
50854;BME280;44154;45.506;-122.806;2022-07-29T05:20:34;100233.13;;;30.03;40.95
50854;BME280;44154;45.506;-122.806;2022-07-29T05:23:01;100246.00;;;30.07;40.73
50854;BME280;44154;45.506;-122.806;2022-07-29T05:25:28;100241.59;;;30.06;40.67
50854;BME280;44154;45.506;-122.806;2022-07-29T05:27:55;100230.75;;;29.96;40.70
50854;BME280;44154;45.506;-122.806;2022-07-29T05:30:21;100235.56;;;30.04;40.75
50854;BME280;44154;45.506;-122.806;2022-07-29T05:32:47;100243.84;;;30.04;40.66
50854;BME280;44154;45.506;-122.806;2022-07-29T05:35:14;100246.59;;;30.04;40.51
50854;BME280;44154;45.506;-122.806;2022-07-29T05:37:41;100235.78;;;29.94;40.56
50854;BME280;44154;45.506;-122.806;2022-07-29T05:40:08;100248.34;;;30.00;40.38
50854;BME280;44154;45.506;-122.806;2022-07-29T05:42:34;100254.06;;;30.04;40.38
50854;BME280;44154;45.506;-122.806;2022-07-29T05:45:01;100248.34;;;30.00;40.39
50854;BME280;44154;45.506;-122.806;2022-07-29T05:47:27;100253.84;;;30.00;40.38
50854;BME280;44154;45.506;-122.806;2022-07-29T05:49:53;100247.84;;;29.98;40.55
50854;BME280;44154;45.506;-122.806;2022-07-29T05:52:20;100251.09;;;30.00;40.46
50854;BME280;44154;45.506;-122.806;2022-07-29T05:54:47;100257.72;;;29.99;40.57
50854;BME280;44154;45.506;-122.806;2022-07-29T05:57:21;100253.66;;;29.97;40.20
50854;BME280;44154;45.506;-122.806;2022-07-29T05:59:48;100250.91;;;29.97;40.29
50854;BME280;44154;45.506;-122.806;2022-07-29T06:02:14;100244.25;;;29.84;40.52
50854;BME280;44154;45.506;-122.806;2022-07-29T06:04:41;100268.25;;;29.97;40.25
50854;BME280;44154;45.506;-122.806;2022-07-29T06:07:07;100264.47;;;29.93;40.35
50854;BME280;44154;45.506;-122.806;2022-07-29T06:09:34;100269.38;;;29.96;40.10
50854;BME280;44154;45.506;-122.806;2022-07-29T06:12:01;100265.00;;;29.95;40.08
50854;BME280;44154;45.506;-122.806;2022-07-29T06:14:27;100266.72;;;29.91;40.15
50854;BME280;44154;45.506;-122.806;2022-07-29T06:16:54;100274.69;;;29.92;40.38
50854;BME280;44154;45.506;-122.806;2022-07-29T06:19:20;100273.88;;;29.92;40.18
50854;BME280;44154;45.506;-122.806;2022-07-29T06:21:47;100278.06;;;29.89;40.16
50854;BME280;44154;45.506;-122.806;2022-07-29T06:24:14;100272.25;;;29.91;40.11
50854;BME280;44154;45.506;-122.806;2022-07-29T06:26:41;100268.00;;;29.80;40.05
50854;BME280;44154;45.506;-122.806;2022-07-29T06:29:08;100270.41;;;29.86;40.27
50854;BME280;44154;45.506;-122.806;2022-07-29T06:31:36;100282.25;;;29.87;39.79
50854;BME280;44154;45.506;-122.806;2022-07-29T06:34:03;100282.25;;;29.87;39.91
50854;BME280;44154;45.506;-122.806;2022-07-29T06:36:30;100275.97;;;29.81;39.80
50854;BME280;44154;45.506;-122.806;2022-07-29T06:38:56;100274.03;;;29.82;40.13
50854;BME280;44154;45.506;-122.806;2022-07-29T06:41:22;100280.38;;;29.82;39.87
50854;BME280;44154;45.506;-122.806;2022-07-29T06:43:49;100271.25;;;29.82;39.96
50854;BME280;44154;45.506;-122.806;2022-07-29T06:46:18;100277.09;;;29.80;39.95
50854;BME280;44154;45.506;-122.806;2022-07-29T06:48:45;100294.47;;;29.81;39.90
50854;BME280;44154;45.506;-122.806;2022-07-29T06:51:11;100290.88;;;29.80;39.82
50854;BME280;44154;45.506;-122.806;2022-07-29T06:53:38;100281.78;;;29.80;39.71
50854;BME280;44154;45.506;-122.806;2022-07-29T06:56:06;100285.66;;;29.79;39.98
50854;BME280;44154;45.506;-122.806;2022-07-29T06:58:35;100281.38;;;29.72;39.61
50854;BME280;44154;45.506;-122.806;2022-07-29T07:01:03;100304.47;;;29.76;39.98
50854;BME280;44154;45.506;-122.806;2022-07-29T07:03:30;100296.50;;;29.75;39.73
50854;BME280;44154;45.506;-122.806;2022-07-29T07:05:56;100280.94;;;29.65;39.50
50854;BME280;44154;45.506;-122.806;2022-07-29T07:08:23;100286.88;;;29.72;39.81
50854;BME280;44154;45.506;-122.806;2022-07-29T07:10:50;100289.72;;;29.67;39.42
50854;BME280;44154;45.506;-122.806;2022-07-29T07:13:17;100227.31;;;29.24;39.76
50854;BME280;44154;45.506;-122.806;2022-07-29T07:15:45;100293.19;;;29.59;39.63
50854;BME280;44154;45.506;-122.806;2022-07-29T07:18:13;100298.28;;;29.66;39.48
50854;BME280;44154;45.506;-122.806;2022-07-29T07:20:40;100288.09;;;29.66;39.61
50854;BME280;44154;45.506;-122.806;2022-07-29T07:23:07;100296.97;;;29.63;39.51
50854;BME280;44154;45.506;-122.806;2022-07-29T07:25:33;100277.41;;;29.46;39.68
50854;BME280;44154;45.506;-122.806;2022-07-29T07:28:00;100305.75;;;29.65;39.69
50854;BME280;44154;45.506;-122.806;2022-07-29T07:30:27;100293.56;;;29.52;39.55
50854;BME280;44154;45.506;-122.806;2022-07-29T07:32:53;100298.47;;;29.55;39.61
50854;BME280;44154;45.506;-122.806;2022-07-29T07:35:19;100308.28;;;29.62;39.63
50854;BME280;44154;45.506;-122.806;2022-07-29T07:37:46;100295.09;;;29.45;39.68
50854;BME280;44154;45.506;-122.806;2022-07-29T07:40:13;100308.09;;;29.58;39.53
50854;BME280;44154;45.506;-122.806;2022-07-29T07:42:40;100307.28;;;29.57;39.46
50854;BME280;44154;45.506;-122.806;2022-07-29T07:45:08;100315.81;;;29.56;39.38
50854;BME280;44154;45.506;-122.806;2022-07-29T07:47:38;100312.56;;;29.54;39.42
50854;BME280;44154;45.506;-122.806;2022-07-29T07:50:06;100299.69;;;29.49;39.66
50854;BME280;44154;45.506;-122.806;2022-07-29T07:52:32;100290.75;;;29.38;39.45
50854;BME280;44154;45.506;-122.806;2022-07-29T07:54:59;100310.72;;;29.49;39.19
50854;BME280;44154;45.506;-122.806;2022-07-29T07:57:25;100300.91;;;29.43;39.60
50854;BME280;44154;45.506;-122.806;2022-07-29T07:59:51;100308.25;;;29.48;39.64
50854;BME280;44154;45.506;-122.806;2022-07-29T08:02:17;100297.72;;;29.36;39.22
50854;BME280;44154;45.506;-122.806;2022-07-29T08:04:44;100281.00;;;29.27;39.32
50854;BME280;44154;45.506;-122.806;2022-07-29T08:07:10;100275.31;;;29.18;39.59
50854;BME280;44154;45.506;-122.806;2022-07-29T08:09:36;100284.34;;;29.24;39.41
50854;BME280;44154;45.506;-122.806;2022-07-29T08:12:02;100307.81;;;29.40;39.51
50854;BME280;44154;45.506;-122.806;2022-07-29T08:14:30;100304.53;;;29.38;39.67
50854;BME280;44154;45.506;-122.806;2022-07-29T08:16:56;100289.34;;;29.22;39.39
50854;BME280;44154;45.506;-122.806;2022-07-29T08:19:23;100307.59;;;29.37;39.50
50854;BME280;44154;45.506;-122.806;2022-07-29T08:21:49;100301.28;;;29.36;39.52
50854;BME280;44154;45.506;-122.806;2022-07-29T08:24:15;100309.00;;;29.34;39.44
50854;BME280;44154;45.506;-122.806;2022-07-29T08:26:59;100283.28;;;29.20;39.38
50854;BME280;44154;45.506;-122.806;2022-07-29T08:29:25;100307.69;;;29.32;39.30
50854;BME280;44154;45.506;-122.806;2022-07-29T08:31:52;100279.53;;;29.16;39.18
50854;BME280;44154;45.506;-122.806;2022-07-29T08:34:18;100300.81;;;29.29;39.40
50854;BME280;44154;45.506;-122.806;2022-07-29T08:36:44;100299.19;;;29.28;39.15
50854;BME280;44154;45.506;-122.806;2022-07-29T08:39:10;100305.31;;;29.25;39.10
50854;BME280;44154;45.506;-122.806;2022-07-29T08:41:36;100305.44;;;29.15;39.38
50854;BME280;44154;45.506;-122.806;2022-07-29T08:44:03;100310.00;;;29.24;39.31
50854;BME280;44154;45.506;-122.806;2022-07-29T08:46:29;100267.38;;;28.98;39.18
50854;BME280;44154;45.506;-122.806;2022-07-29T08:48:55;100265.97;;;29.00;39.47
50854;BME280;44154;45.506;-122.806;2022-07-29T08:51:22;100311.97;;;29.19;39.41
50854;BME280;44154;45.506;-122.806;2022-07-29T08:53:49;100277.78;;;29.01;39.52
50854;BME280;44154;45.506;-122.806;2022-07-29T08:56:17;100304.31;;;29.16;39.21
50854;BME280;44154;45.506;-122.806;2022-07-29T08:58:45;100305.44;;;29.15;39.15
50854;BME280;44154;45.506;-122.806;2022-07-29T09:01:14;100307.66;;;29.13;39.36
50854;BME280;44154;45.506;-122.806;2022-07-29T09:03:43;100288.59;;;28.97;39.03
50854;BME280;44154;45.506;-122.806;2022-07-29T09:06:14;100304.38;;;29.11;38.90
50854;BME280;44154;45.506;-122.806;2022-07-29T09:08:40;100308.25;;;29.10;39.24
50854;BME280;44154;45.506;-122.806;2022-07-29T09:11:07;100283.16;;;28.92;39.12
50854;BME280;44154;45.506;-122.806;2022-07-29T09:13:34;100292.75;;;28.95;39.44
50854;BME280;44154;45.506;-122.806;2022-07-29T09:16:00;100305.03;;;29.02;39.23
50854;BME280;44154;45.506;-122.806;2022-07-29T09:18:42;100307.78;;;29.02;39.08
50854;BME280;44154;45.506;-122.806;2022-07-29T09:21:12;100314.94;;;29.03;39.17
50854;BME280;44154;45.506;-122.806;2022-07-29T09:24:13;100319.94;;;29.01;39.10
50854;BME280;44154;45.506;-122.806;2022-07-29T09:26:41;100317.19;;;29.01;39.02
50854;BME280;44154;45.506;-122.806;2022-07-29T09:29:16;100317.19;;;29.01;39.26
50854;BME280;44154;45.506;-122.806;2022-07-29T09:31:53;100311.44;;;28.98;38.87
50854;BME280;44154;45.506;-122.806;2022-07-29T09:34:25;100304.44;;;28.86;39.27
50854;BME280;44154;45.506;-122.806;2022-07-29T09:36:54;100311.75;;;28.96;39.07
50854;BME280;44154;45.506;-122.806;2022-07-29T09:39:37;100294.91;;;28.79;38.93
50854;BME280;44154;45.506;-122.806;2022-07-29T09:42:11;100318.97;;;28.92;39.07
50854;BME280;44154;45.506;-122.806;2022-07-29T09:44:43;100323.97;;;28.90;39.31
50854;BME280;44154;45.506;-122.806;2022-07-29T09:47:09;100322.31;;;28.89;39.02
50854;BME280;44154;45.506;-122.806;2022-07-29T09:49:58;100321.81;;;28.87;39.18
50854;BME280;44154;45.506;-122.806;2022-07-29T09:52:27;100317.47;;;28.81;39.10
50854;BME280;44154;45.506;-122.806;2022-07-29T09:55:03;100327.06;;;28.83;39.02
50854;BME280;44154;45.506;-122.806;2022-07-29T09:57:29;100315.84;;;28.80;39.00
50854;BME280;44154;45.506;-122.806;2022-07-29T10:02:33;100325.72;;;28.81;39.30
50854;BME280;44154;45.506;-122.806;2022-07-29T10:05:02;100299.50;;;28.64;38.87
50854;BME280;44154;45.506;-122.806;2022-07-29T10:10:26;100323.63;;;28.72;38.95
50854;BME280;44154;45.506;-122.806;2022-07-29T10:12:58;100322.28;;;28.70;38.95
50854;BME280;44154;45.506;-122.806;2022-07-29T10:15:29;100296.31;;;28.52;39.19
50854;BME280;44154;45.506;-122.806;2022-07-29T10:17:56;100298.84;;;28.48;39.31
50854;BME280;44154;45.506;-122.806;2022-07-29T10:20:23;100340.72;;;28.69;39.32
50854;BME280;44154;45.506;-122.806;2022-07-29T10:22:50;100330.00;;;28.68;38.91
50854;BME280;44154;45.506;-122.806;2022-07-29T10:25:18;100322.88;;;28.67;39.22
50854;BME280;44154;45.506;-122.806;2022-07-29T10:27:45;100333.34;;;28.65;38.99
50854;BME280;44154;45.506;-122.806;2022-07-29T10:30:13;100344.66;;;28.63;38.88
50854;BME280;44154;45.506;-122.806;2022-07-29T10:41:11;100332.63;;;28.54;38.96
50854;BME280;44154;45.506;-122.806;2022-07-29T10:44:05;100337.91;;;28.50;39.08
50854;BME280;44154;45.506;-122.806;2022-07-29T10:46:37;100335.16;;;28.50;39.31
50854;BME280;44154;45.506;-122.806;2022-07-29T10:54:43;100339.38;;;28.43;38.98
50854;BME280;44154;45.506;-122.806;2022-07-29T10:57:25;100345.97;;;28.42;39.15
50854;BME280;44154;45.506;-122.806;2022-07-29T11:05:07;100313.78;;;28.18;38.97
50854;BME280;44154;45.506;-122.806;2022-07-29T11:07:38;100341.38;;;28.37;38.99
50854;BME280;44154;45.506;-122.806;2022-07-29T11:15:13;100334.63;;;28.24;39.00
50854;BME280;44154;45.506;-122.806;2022-07-29T11:20:43;100354.94;;;28.28;38.78
50854;BME280;44154;45.506;-122.806;2022-07-29T11:23:28;100352.47;;;28.27;39.06
50854;BME280;44154;45.506;-122.806;2022-07-29T11:31:16;100361.03;;;28.25;39.12
50854;BME280;44154;45.506;-122.806;2022-07-29T11:33:45;100353.09;;;28.18;39.07
50854;BME280;44154;45.506;-122.806;2022-07-29T11:36:14;100357.25;;;28.16;39.01
50854;BME280;44154;45.506;-122.806;2022-07-29T11:38:41;100365.22;;;28.17;38.94
50854;BME280;44154;45.506;-122.806;2022-07-29T11:43:59;100373.53;;;28.12;38.75
50854;BME280;44154;45.506;-122.806;2022-07-29T11:46:45;100359.06;;;27.96;39.00
50854;BME280;44154;45.506;-122.806;2022-07-29T11:49:12;100377.69;;;28.10;39.33
50854;BME280;44154;45.506;-122.806;2022-07-29T11:51:39;100384.28;;;28.09;39.22
50854;BME280;44154;45.506;-122.806;2022-07-29T11:54:11;100376.91;;;28.04;39.10
50854;BME280;44154;45.506;-122.806;2022-07-29T11:56:41;100381.59;;;28.03;39.04
50854;BME280;44154;45.506;-122.806;2022-07-29T11:59:10;100384.06;;;28.05;39.28
50854;BME280;44154;45.506;-122.806;2022-07-29T12:01:36;100378.28;;;28.01;39.14
50854;BME280;44154;45.506;-122.806;2022-07-29T12:04:07;100383.78;;;28.01;38.90
50854;BME280;44154;45.506;-122.806;2022-07-29T12:06:36;100371.69;;;27.97;39.07
50854;BME280;44154;45.506;-122.806;2022-07-29T12:09:09;100382.69;;;27.97;39.35
50854;BME280;44154;45.506;-122.806;2022-07-29T12:11:35;100383.81;;;27.96;39.08
50854;BME280;44154;45.506;-122.806;2022-07-29T12:14:02;100378.63;;;27.95;39.04
50854;BME280;44154;45.506;-122.806;2022-07-29T12:16:37;100359.78;;;27.78;38.94
50854;BME280;44154;45.506;-122.806;2022-07-29T12:19:04;100377.84;;;27.89;39.25
50854;BME280;44154;45.506;-122.806;2022-07-29T12:21:53;100374.53;;;27.87;39.23
50854;BME280;44154;45.506;-122.806;2022-07-29T12:24:20;100361.13;;;27.80;39.12
50854;BME280;44154;45.506;-122.806;2022-07-29T12:26:53;100378.69;;;27.84;39.30
50854;BME280;44154;45.506;-122.806;2022-07-29T12:29:20;100388.06;;;27.83;39.14
50854;BME280;44154;45.506;-122.806;2022-07-29T12:31:50;100376.31;;;27.73;39.05
50854;BME280;44154;45.506;-122.806;2022-07-29T12:34:22;100378.19;;;27.77;39.01
50854;BME280;44154;45.506;-122.806;2022-07-29T12:36:49;100362.63;;;27.62;39.45
50854;BME280;44154;45.506;-122.806;2022-07-29T12:39:18;100371.41;;;27.64;38.91
50854;BME280;44154;45.506;-122.806;2022-07-29T12:41:45;100376.00;;;27.74;39.02
50854;BME280;44154;45.506;-122.806;2022-07-29T12:44:11;100376.31;;;27.73;38.90
50854;BME280;44154;45.506;-122.806;2022-07-29T12:46:38;100369.22;;;27.66;39.21
50854;BME280;44154;45.506;-122.806;2022-07-29T12:49:04;100385.94;;;27.70;39.25
50854;BME280;44154;45.506;-122.806;2022-07-29T12:51:35;100381.84;;;27.67;38.92
50854;BME280;44154;45.506;-122.806;2022-07-29T12:54:10;100375.81;;;27.65;39.04
50854;BME280;44154;45.506;-122.806;2022-07-29T12:56:40;100382.41;;;27.64;38.91
50854;BME280;44154;45.506;-122.806;2022-07-29T12:59:18;100378.31;;;27.62;39.03
50854;BME280;44154;45.506;-122.806;2022-07-29T13:01:47;100383.25;;;27.60;38.96
50854;BME280;44154;45.506;-122.806;2022-07-29T13:04:31;100368.53;;;27.45;39.61
50854;BME280;44154;45.506;-122.806;2022-07-29T13:07:03;100392.63;;;27.59;39.31
50854;BME280;44154;45.506;-122.806;2022-07-29T13:09:43;100389.63;;;27.55;38.90
50854;BME280;44154;45.506;-122.806;2022-07-29T13:12:12;100378.66;;;27.50;39.41
50854;BME280;44154;45.506;-122.806;2022-07-29T13:14:49;100385.81;;;27.51;39.38
50854;BME280;44154;45.506;-122.806;2022-07-29T13:17:20;100381.16;;;27.51;39.25
50854;BME280;44154;45.506;-122.806;2022-07-29T13:19:50;100382.53;;;27.49;39.45
50854;BME280;44154;45.506;-122.806;2022-07-29T13:22:19;100395.72;;;27.47;39.14
50854;BME280;44154;45.506;-122.806;2022-07-29T13:24:58;100395.19;;;27.45;39.34